sensor_id;sensor_type;location;lat;lon;timestamp;pressure;altitude;pressure_sealevel;temperature;humidity
3960;BME280;1994;48.640;8.894;2023-06-10T00:01:55;95791.81;;;18.85;59.29
3960;BME280;1994;48.640;8.894;2023-06-10T00:04:23;95785.69;;;18.76;59.43
3960;BME280;1994;48.640;8.894;2023-06-10T00:06:49;95787.84;;;18.74;59.84
3960;BME280;1994;48.640;8.894;2023-06-10T00:09:15;95789.56;;;18.78;59.70
3960;BME280;1994;48.640;8.894;2023-06-10T00:11:41;95791.91;;;18.80;59.72
3960;BME280;1994;48.640;8.894;2023-06-10T00:14:08;95791.03;;;18.71;59.94
3960;BME280;1994;48.640;8.894;2023-06-10T00:16:34;95797.53;;;18.60;60.64
3960;BME280;1994;48.640;8.894;2023-06-10T00:19:04;95794.63;;;18.48;60.71
3960;BME280;1994;48.640;8.894;2023-06-10T00:21:32;95788.97;;;18.41;61.10
3960;BME280;1994;48.640;8.894;2023-06-10T00:24:07;95790.97;;;18.30;61.46
3960;BME280;1994;48.640;8.894;2023-06-10T00:26:38;95787.69;;;18.25;61.62
3960;BME280;1994;48.640;8.894;2023-06-10T00:29:04;95796.31;;;18.25;61.65
3960;BME280;1994;48.640;8.894;2023-06-10T00:31:30;95790.47;;;18.15;62.19
3960;BME280;1994;48.640;8.894;2023-06-10T00:33:56;95785.22;;;18.15;62.14
3960;BME280;1994;48.640;8.894;2023-06-10T00:36:22;95787.53;;;18.16;62.06
3960;BME280;1994;48.640;8.894;2023-06-10T00:38:48;95784.44;;;18.14;61.88
3960;BME280;1994;48.640;8.894;2023-06-10T00:41:14;95788.91;;;18.14;62.16
3960;BME280;1994;48.640;8.894;2023-06-10T00:43:40;95793.72;;;18.07;62.38
3960;BME280;1994;48.640;8.894;2023-06-10T00:46:05;95787.63;;;17.98;63.06
3960;BME280;1994;48.640;8.894;2023-06-10T00:48:32;95782.03;;;17.86;63.30
3960;BME280;1994;48.640;8.894;2023-06-10T00:50:58;95788.41;;;17.80;63.69
3960;BME280;1994;48.640;8.894;2023-06-10T00:53:26;95791.22;;;17.83;63.39
3960;BME280;1994;48.640;8.894;2023-06-10T00:55:52;95787.44;;;17.76;63.73
3960;BME280;1994;48.640;8.894;2023-06-10T00:58:18;95781.78;;;17.69;63.83
3960;BME280;1994;48.640;8.894;2023-06-10T01:00:44;95785.13;;;17.56;64.28
3960;BME280;1994;48.640;8.894;2023-06-10T01:03:11;95788.88;;;17.50;64.38
3960;BME280;1994;48.640;8.894;2023-06-10T01:05:38;95789.44;;;17.47;64.56
3960;BME280;1994;48.640;8.894;2023-06-10T01:08:19;95783.78;;;17.40;64.94
3960;BME280;1994;48.640;8.894;2023-06-10T01:10:59;95784.00;;;17.43;64.92
3960;BME280;1994;48.640;8.894;2023-06-10T01:13:26;95787.34;;;17.49;64.90
3960;BME280;1994;48.640;8.894;2023-06-10T01:15:55;95778.75;;;17.43;64.63
3960;BME280;1994;48.640;8.894;2023-06-10T01:18:22;95773.69;;;17.28;65.31
3960;BME280;1994;48.640;8.894;2023-06-10T01:20:48;95776.69;;;17.22;65.65
3960;BME280;1994;48.640;8.894;2023-06-10T01:23:15;95779.38;;;17.17;65.85
3960;BME280;1994;48.640;8.894;2023-06-10T01:28:51;95780.66;;;17.38;65.10
3960;BME280;1994;48.640;8.894;2023-06-10T01:31:43;95776.91;;;17.25;65.62
3960;BME280;1994;48.640;8.894;2023-06-10T01:34:16;95777.94;;;17.06;66.10
3960;BME280;1994;48.640;8.894;2023-06-10T01:36:46;95782.06;;;17.12;65.73
3960;BME280;1994;48.640;8.894;2023-06-10T01:39:16;95773.34;;;17.16;65.92
3960;BME280;1994;48.640;8.894;2023-06-10T01:41:43;95779.84;;;17.19;65.69
3960;BME280;1994;48.640;8.894;2023-06-10T01:44:10;95787.56;;;17.29;65.49
3960;BME280;1994;48.640;8.894;2023-06-10T01:46:36;95787.50;;;17.34;65.34
3960;BME280;1994;48.640;8.894;2023-06-10T01:49:02;95781.44;;;17.38;65.19
3960;BME280;1994;48.640;8.894;2023-06-10T01:51:27;95783.00;;;17.39;65.14
3960;BME280;1994;48.640;8.894;2023-06-10T01:53:53;95786.44;;;17.35;64.65
3960;BME280;1994;48.640;8.894;2023-06-10T01:56:19;95789.34;;;17.33;64.77
3960;BME280;1994;48.640;8.894;2023-06-10T01:58:48;95791.19;;;17.33;64.55
3960;BME280;1994;48.640;8.894;2023-06-10T02:01:14;95790.81;;;17.21;65.42
3960;BME280;1994;48.640;8.894;2023-06-10T02:03:40;95799.94;;;17.23;65.49
3960;BME280;1994;48.640;8.894;2023-06-10T02:06:06;95795.06;;;17.17;65.28
3960;BME280;1994;48.640;8.894;2023-06-10T02:08:32;95797.88;;;17.02;65.91
3960;BME280;1994;48.640;8.894;2023-06-10T02:10:58;95795.91;;;16.94;66.23
3960;BME280;1994;48.640;8.894;2023-06-10T02:13:23;95802.81;;;16.85;66.92
3960;BME280;1994;48.640;8.894;2023-06-10T02:15:49;95809.81;;;16.89;67.02
3960;BME280;1994;48.640;8.894;2023-06-10T02:18:15;95802.09;;;16.98;66.59
3960;BME280;1994;48.640;8.894;2023-06-10T02:20:41;95793.78;;;16.96;66.79
3960;BME280;1994;48.640;8.894;2023-06-10T02:23:06;95803.56;;;16.85;66.92
3960;BME280;1994;48.640;8.894;2023-06-10T02:25:32;95804.91;;;16.83;67.24
3960;BME280;1994;48.640;8.894;2023-06-10T02:27:58;95801.63;;;16.72;67.74
3960;BME280;1994;48.640;8.894;2023-06-10T02:30:24;95802.91;;;16.75;67.10
3960;BME280;1994;48.640;8.894;2023-06-10T02:32:49;95796.47;;;16.67;67.34
3960;BME280;1994;48.640;8.894;2023-06-10T02:35:17;95804.56;;;16.66;67.83
3960;BME280;1994;48.640;8.894;2023-06-10T02:37:43;95803.13;;;16.55;68.15
3960;BME280;1994;48.640;8.894;2023-06-10T02:40:11;95804.81;;;16.46;68.79
3960;BME280;1994;48.640;8.894;2023-06-10T02:42:37;95805.16;;;16.63;68.12
3960;BME280;1994;48.640;8.894;2023-06-10T02:45:03;95805.16;;;16.63;68.02
3960;BME280;1994;48.640;8.894;2023-06-10T02:47:29;95814.53;;;16.64;68.00
3960;BME280;1994;48.640;8.894;2023-06-10T02:49:55;95807.19;;;16.42;69.02
3960;BME280;1994;48.640;8.894;2023-06-10T02:52:21;95815.34;;;16.36;69.23
3960;BME280;1994;48.640;8.894;2023-06-10T02:54:47;95819.00;;;16.35;69.35
3960;BME280;1994;48.640;8.894;2023-06-10T02:57:12;95812.81;;;16.26;70.01
3960;BME280;1994;48.640;8.894;2023-06-10T02:59:40;95813.41;;;16.18;70.23
3960;BME280;1994;48.640;8.894;2023-06-10T03:02:06;95810.28;;;16.16;70.13
3960;BME280;1994;48.640;8.894;2023-06-10T03:04:33;95811.47;;;16.28;69.82
3960;BME280;1994;48.640;8.894;2023-06-10T03:06:58;95814.75;;;16.15;70.51
3960;BME280;1994;48.640;8.894;2023-06-10T03:09:29;95820.28;;;16.09;70.65
3960;BME280;1994;48.640;8.894;2023-06-10T03:11:55;95827.16;;;16.00;70.92
3960;BME280;1994;48.640;8.894;2023-06-10T03:14:21;95825.59;;;15.99;70.93
3960;BME280;1994;48.640;8.894;2023-06-10T03:16:46;95819.84;;;16.02;70.54
3960;BME280;1994;48.640;8.894;2023-06-10T03:19:12;95827.22;;;15.90;71.15
3960;BME280;1994;48.640;8.894;2023-06-10T03:21:38;95826.78;;;15.78;71.97
3960;BME280;1994;48.640;8.894;2023-06-10T03:24:04;95835.59;;;15.92;71.34
3960;BME280;1994;48.640;8.894;2023-06-10T03:26:30;95835.59;;;15.92;70.97
3960;BME280;1994;48.640;8.894;2023-06-10T03:28:56;95831.84;;;16.03;70.83
3960;BME280;1994;48.640;8.894;2023-06-10T03:31:22;95831.28;;;16.06;70.85
3960;BME280;1994;48.640;8.894;2023-06-10T03:33:47;95824.00;;;16.03;70.97
3960;BME280;1994;48.640;8.894;2023-06-10T03:36:13;95822.41;;;16.07;70.94
3960;BME280;1994;48.640;8.894;2023-06-10T03:38:39;95829.63;;;16.15;70.91
3960;BME280;1994;48.640;8.894;2023-06-10T03:41:05;95835.88;;;16.19;70.67
3960;BME280;1994;48.640;8.894;2023-06-10T03:43:30;95836.09;;;16.22;70.15
3960;BME280;1994;48.640;8.894;2023-06-10T03:45:56;95831.94;;;16.21;70.30
3960;BME280;1994;48.640;8.894;2023-06-10T03:48:22;95839.44;;;16.28;70.03
3960;BME280;1994;48.640;8.894;2023-06-10T03:50:48;95839.97;;;16.30;70.02
3960;BME280;1994;48.640;8.894;2023-06-10T03:53:16;95835.97;;;16.09;70.86
3960;BME280;1994;48.640;8.894;2023-06-10T03:55:42;95839.72;;;15.98;71.07
3960;BME280;1994;48.640;8.894;2023-06-10T03:58:08;95848.13;;;15.90;71.80
3960;BME280;1994;48.640;8.894;2023-06-10T04:00:33;95850.75;;;15.85;71.83
3960;BME280;1994;48.640;8.894;2023-06-10T04:03:09;95850.00;;;15.84;72.08
3960;BME280;1994;48.640;8.894;2023-06-10T04:05:40;95853.97;;;15.77;72.61
3960;BME280;1994;48.640;8.894;2023-06-10T04:08:07;95853.19;;;15.76;72.82
3960;BME280;1994;48.640;8.894;2023-06-10T04:10:33;95854.97;;;15.86;72.32
3960;BME280;1994;48.640;8.894;2023-06-10T04:12:59;95849.53;;;15.77;72.93
3960;BME280;1994;48.640;8.894;2023-06-10T04:15:25;95856.53;;;15.82;72.62
3960;BME280;1994;48.640;8.894;2023-06-10T04:17:51;95858.91;;;15.83;73.06
3960;BME280;1994;48.640;8.894;2023-06-10T04:20:17;95858.09;;;15.83;72.97
3960;BME280;1994;48.640;8.894;2023-06-10T04:22:42;95862.22;;;15.89;72.75
3960;BME280;1994;48.640;8.894;2023-06-10T04:25:10;95858.22;;;16.01;72.99
3960;BME280;1994;48.640;8.894;2023-06-10T04:27:35;95862.84;;;16.09;72.62
3960;BME280;1994;48.640;8.894;2023-06-10T04:30:03;95857.28;;;16.21;71.90
3960;BME280;1994;48.640;8.894;2023-06-10T04:32:29;95859.44;;;16.14;72.50
3960;BME280;1994;48.640;8.894;2023-06-10T04:34:55;95859.47;;;16.09;72.19
3960;BME280;1994;48.640;8.894;2023-06-10T04:37:21;95863.09;;;16.13;72.36
3960;BME280;1994;48.640;8.894;2023-06-10T04:39:47;95866.00;;;16.11;72.26
3960;BME280;1994;48.640;8.894;2023-06-10T04:42:13;95871.38;;;16.25;72.06
3960;BME280;1994;48.640;8.894;2023-06-10T04:44:38;95873.88;;;16.40;71.73
3960;BME280;1994;48.640;8.894;2023-06-10T04:47:04;95875.91;;;16.48;71.56
3960;BME280;1994;48.640;8.894;2023-06-10T04:49:30;95873.13;;;16.63;71.28
3960;BME280;1994;48.640;8.894;2023-06-10T04:51:57;95872.13;;;16.59;71.52
3960;BME280;1994;48.640;8.894;2023-06-10T04:54:23;95877.16;;;16.79;70.31
3960;BME280;1994;48.640;8.894;2023-06-10T04:56:48;95874.50;;;16.84;70.32
3960;BME280;1994;48.640;8.894;2023-06-10T04:59:14;95866.25;;;16.95;69.58
3960;BME280;1994;48.640;8.894;2023-06-10T05:01:40;95874.25;;;17.04;69.38
3960;BME280;1994;48.640;8.894;2023-06-10T05:04:06;95870.25;;;17.11;69.19
3960;BME280;1994;48.640;8.894;2023-06-10T05:06:31;95867.72;;;17.25;68.96
3960;BME280;1994;48.640;8.894;2023-06-10T05:08:57;95867.13;;;17.33;68.56
3960;BME280;1994;48.640;8.894;2023-06-10T05:11:23;95864.44;;;17.38;68.57
3960;BME280;1994;48.640;8.894;2023-06-10T05:13:48;95861.69;;;17.48;68.46
3960;BME280;1994;48.640;8.894;2023-06-10T05:16:14;95868.94;;;17.56;68.28
3960;BME280;1994;48.640;8.894;2023-06-10T05:18:41;95876.13;;;17.64;68.53
3960;BME280;1994;48.640;8.894;2023-06-10T05:21:06;95879.63;;;17.78;68.08
3960;BME280;1994;48.640;8.894;2023-06-10T05:23:32;95885.88;;;17.82;67.68
3960;BME280;1994;48.640;8.894;2023-06-10T05:25:58;95886.13;;;17.99;67.67
3960;BME280;1994;48.640;8.894;2023-06-10T05:28:25;95888.69;;;18.04;67.49
3960;BME280;1994;48.640;8.894;2023-06-10T05:30:51;95895.69;;;18.08;67.16
3960;BME280;1994;48.640;8.894;2023-06-10T05:33:17;95888.34;;;18.24;67.03
3960;BME280;1994;48.640;8.894;2023-06-10T05:35:42;95891.69;;;18.29;66.96
3960;BME280;1994;48.640;8.894;2023-06-10T05:38:08;95892.31;;;18.40;66.53
3960;BME280;1994;48.640;8.894;2023-06-10T05:40:34;95898.00;;;18.47;65.98
3960;BME280;1994;48.640;8.894;2023-06-10T05:43:00;95889.63;;;18.58;66.23
3960;BME280;1994;48.640;8.894;2023-06-10T05:45:27;95899.19;;;18.68;65.69
3960;BME280;1994;48.640;8.894;2023-06-10T05:47:52;95893.75;;;18.78;65.28
3960;BME280;1994;48.640;8.894;2023-06-10T05:50:18;95895.22;;;18.84;64.92
3960;BME280;1994;48.640;8.894;2023-06-10T05:52:44;95900.88;;;18.91;64.76
3960;BME280;1994;48.640;8.894;2023-06-10T05:55:10;95898.44;;;18.94;64.63
3960;BME280;1994;48.640;8.894;2023-06-10T05:57:36;95905.44;;;18.99;64.27
3960;BME280;1994;48.640;8.894;2023-06-10T06:00:02;95909.94;;;19.12;64.32
3960;BME280;1994;48.640;8.894;2023-06-10T06:02:28;95902.91;;;19.21;64.54
3960;BME280;1994;48.640;8.894;2023-06-10T06:04:54;95906.09;;;19.23;64.82
3960;BME280;1994;48.640;8.894;2023-06-10T06:07:19;95906.47;;;19.30;64.09
3960;BME280;1994;48.640;8.894;2023-06-10T06:09:47;95908.19;;;19.34;63.65
3960;BME280;1994;48.640;8.894;2023-06-10T06:12:13;95905.66;;;19.43;63.17
3960;BME280;1994;48.640;8.894;2023-06-10T06:14:39;95908.78;;;19.45;63.79
3960;BME280;1994;48.640;8.894;2023-06-10T06:17:06;95906.06;;;19.50;63.73
3960;BME280;1994;48.640;8.894;2023-06-10T06:19:32;95906.41;;;19.70;62.49
3960;BME280;1994;48.640;8.894;2023-06-10T06:21:58;95903.66;;;19.89;62.51
3960;BME280;1994;48.640;8.894;2023-06-10T06:24:23;95901.25;;;20.01;61.80
3960;BME280;1994;48.640;8.894;2023-06-10T06:26:49;95895.38;;;20.04;61.69
3960;BME280;1994;48.640;8.894;2023-06-10T06:29:15;95898.91;;;20.13;62.02
3960;BME280;1994;48.640;8.894;2023-06-10T06:31:40;95900.69;;;20.26;62.33
3960;BME280;1994;48.640;8.894;2023-06-10T06:34:06;95903.09;;;20.36;61.67
3960;BME280;1994;48.640;8.894;2023-06-10T06:36:32;95913.25;;;20.51;61.31
3960;BME280;1994;48.640;8.894;2023-06-10T06:38:58;95906.63;;;20.53;60.66
3960;BME280;1994;48.640;8.894;2023-06-10T06:41:26;95912.41;;;20.42;61.29
3960;BME280;1994;48.640;8.894;2023-06-10T06:43:53;95910.38;;;20.61;60.87
3960;BME280;1994;48.640;8.894;2023-06-10T06:46:19;95922.09;;;20.77;60.63
3960;BME280;1994;48.640;8.894;2023-06-10T06:48:46;95920.88;;;20.83;59.70
3960;BME280;1994;48.640;8.894;2023-06-10T06:51:12;95920.66;;;20.93;61.06
3960;BME280;1994;48.640;8.894;2023-06-10T06:53:38;95921.19;;;21.12;60.76
3960;BME280;1994;48.640;8.894;2023-06-10T06:56:10;95928.09;;;21.30;59.78
3960;BME280;1994;48.640;8.894;2023-06-10T06:58:36;95921.66;;;21.53;58.68
3960;BME280;1994;48.640;8.894;2023-06-10T07:01:02;95921.00;;;21.56;58.53
3960;BME280;1994;48.640;8.894;2023-06-10T07:03:28;95923.19;;;21.54;58.88
3960;BME280;1994;48.640;8.894;2023-06-10T07:05:54;95920.41;;;21.59;58.43
3960;BME280;1994;48.640;8.894;2023-06-10T07:08:20;95913.03;;;21.78;59.21
3960;BME280;1994;48.640;8.894;2023-06-10T07:10:45;95917.69;;;21.98;58.89
3960;BME280;1994;48.640;8.894;2023-06-10T07:13:11;95925.16;;;22.13;58.63
3960;BME280;1994;48.640;8.894;2023-06-10T07:15:38;95908.84;;;22.19;57.59
3960;BME280;1994;48.640;8.894;2023-06-10T07:18:04;95923.13;;;22.35;58.18
3960;BME280;1994;48.640;8.894;2023-06-10T07:20:30;95921.13;;;22.07;58.64
3960;BME280;1994;48.640;8.894;2023-06-10T07:22:56;95918.00;;;22.22;59.33
3960;BME280;1994;48.640;8.894;2023-06-10T07:25:21;95918.03;;;22.39;58.13
3960;BME280;1994;48.640;8.894;2023-06-10T07:27:47;95915.69;;;22.46;57.35
3960;BME280;1994;48.640;8.894;2023-06-10T07:30:13;95918.63;;;22.36;58.30
3960;BME280;1994;48.640;8.894;2023-06-10T07:32:39;95914.28;;;22.57;57.45
3960;BME280;1994;48.640;8.894;2023-06-10T07:35:08;95914.69;;;22.76;58.17
3960;BME280;1994;48.640;8.894;2023-06-10T07:37:35;95915.63;;;22.80;56.68
3960;BME280;1994;48.640;8.894;2023-06-10T07:40:01;95912.75;;;22.56;56.59
3960;BME280;1994;48.640;8.894;2023-06-10T07:42:27;95912.72;;;22.73;56.78
3960;BME280;1994;48.640;8.894;2023-06-10T07:44:53;95911.13;;;22.89;56.50
3960;BME280;1994;48.640;8.894;2023-06-10T07:47:19;95910.38;;;23.26;56.40
3960;BME280;1994;48.640;8.894;2023-06-10T07:49:44;95918.31;;;23.55;54.71
3960;BME280;1994;48.640;8.894;2023-06-10T07:52:10;95908.91;;;23.66;52.69
3960;BME280;1994;48.640;8.894;2023-06-10T07:54:36;95921.41;;;23.57;52.43
3960;BME280;1994;48.640;8.894;2023-06-10T07:57:02;95922.41;;;23.44;51.87
3960;BME280;1994;48.640;8.894;2023-06-10T07:59:28;95911.72;;;23.40;52.04
3960;BME280;1994;48.640;8.894;2023-06-10T08:01:53;95915.28;;;23.36;52.23
3960;BME280;1994;48.640;8.894;2023-06-10T08:04:19;95915.03;;;23.29;52.07
3960;BME280;1994;48.640;8.894;2023-06-10T08:06:45;95906.28;;;23.66;52.06
3960;BME280;1994;48.640;8.894;2023-06-10T08:09:10;95911.88;;;23.85;51.85
3960;BME280;1994;48.640;8.894;2023-06-10T08:11:36;95899.41;;;23.94;50.68
3960;BME280;1994;48.640;8.894;2023-06-10T08:14:02;95909.56;;;23.92;49.53
3960;BME280;1994;48.640;8.894;2023-06-10T08:16:28;95907.69;;;24.13;49.98
3960;BME280;1994;48.640;8.894;2023-06-10T08:18:53;95902.50;;;24.37;49.82
3960;BME280;1994;48.640;8.894;2023-06-10T08:21:19;95897.97;;;24.17;49.43
3960;BME280;1994;48.640;8.894;2023-06-10T08:23:45;95907.00;;;24.57;49.78
3960;BME280;1994;48.640;8.894;2023-06-10T08:26:11;95904.81;;;24.59;48.02
3960;BME280;1994;48.640;8.894;2023-06-10T08:28:37;95900.66;;;24.82;48.07
3960;BME280;1994;48.640;8.894;2023-06-10T08:31:02;95915.31;;;25.24;47.26
3960;BME280;1994;48.640;8.894;2023-06-10T08:33:28;95909.69;;;25.61;47.30
3960;BME280;1994;48.640;8.894;2023-06-10T08:35:54;95911.53;;;25.97;46.21
3960;BME280;1994;48.640;8.894;2023-06-10T08:38:19;95910.25;;;26.30;45.31
3960;BME280;1994;48.640;8.894;2023-06-10T08:40:45;95916.19;;;25.88;45.11
3960;BME280;1994;48.640;8.894;2023-06-10T08:45:49;95915.25;;;26.20;45.55
3960;BME280;1994;48.640;8.894;2023-06-10T08:48:17;95922.50;;;26.35;44.36
3960;BME280;1994;48.640;8.894;2023-06-10T08:50:44;95910.63;;;26.72;43.60
3960;BME280;1994;48.640;8.894;2023-06-10T08:53:15;95910.09;;;26.39;43.85
3960;BME280;1994;48.640;8.894;2023-06-10T08:55:45;95913.13;;;25.50;45.74
3960;BME280;1994;48.640;8.894;2023-06-10T08:58:14;95913.53;;;26.00;45.51
3960;BME280;1994;48.640;8.894;2023-06-10T09:00:40;95913.41;;;26.36;44.42
3960;BME280;1994;48.640;8.894;2023-06-10T09:03:06;95909.72;;;26.13;45.12
3960;BME280;1994;48.640;8.894;2023-06-10T09:05:34;95912.13;;;25.54;45.27
3960;BME280;1994;48.640;8.894;2023-06-10T09:08:02;95910.72;;;25.45;46.21
3960;BME280;1994;48.640;8.894;2023-06-10T09:10:28;95907.34;;;25.84;46.05
3960;BME280;1994;48.640;8.894;2023-06-10T09:12:54;95902.91;;;26.39;44.97
3960;BME280;1994;48.640;8.894;2023-06-10T09:15:21;95904.53;;;26.44;44.86
3960;BME280;1994;48.640;8.894;2023-06-10T09:17:47;95917.69;;;26.80;44.29
3960;BME280;1994;48.640;8.894;2023-06-10T09:20:13;95909.56;;;27.04;42.94
3960;BME280;1994;48.640;8.894;2023-06-10T09:22:38;95913.78;;;27.36;42.19
3960;BME280;1994;48.640;8.894;2023-06-10T09:25:12;95916.03;;;27.49;41.82
3960;BME280;1994;48.640;8.894;2023-06-10T09:27:52;95915.50;;;27.44;41.71
3960;BME280;1994;48.640;8.894;2023-06-10T09:30:34;95912.72;;;27.56;41.75
3960;BME280;1994;48.640;8.894;2023-06-10T09:33:08;95900.09;;;27.68;41.68
3960;BME280;1994;48.640;8.894;2023-06-10T09:35:35;95899.97;;;27.96;41.04
3960;BME280;1994;48.640;8.894;2023-06-10T09:38:01;95902.44;;;27.39;41.58
3960;BME280;1994;48.640;8.894;2023-06-10T09:40:28;95898.72;;;26.81;42.18
3960;BME280;1994;48.640;8.894;2023-06-10T09:43:00;95899.00;;;26.92;41.97
3960;BME280;1994;48.640;8.894;2023-06-10T09:45:32;95903.72;;;26.83;42.78
3960;BME280;1994;48.640;8.894;2023-06-10T09:47:58;95903.50;;;27.19;42.28
3960;BME280;1994;48.640;8.894;2023-06-10T09:50:24;95896.94;;;26.70;42.86
3960;BME280;1994;48.640;8.894;2023-06-10T09:52:51;95906.41;;;27.14;42.87
3960;BME280;1994;48.640;8.894;2023-06-10T09:55:17;95906.75;;;27.28;41.70
3960;BME280;1994;48.640;8.894;2023-06-10T09:57:43;95906.34;;;27.76;40.55
3960;BME280;1994;48.640;8.894;2023-06-10T10:00:14;95907.53;;;27.94;40.38
3960;BME280;1994;48.640;8.894;2023-06-10T10:02:51;95909.13;;;28.33;38.80
3960;BME280;1994;48.640;8.894;2023-06-10T10:05:22;95903.22;;;28.43;38.82
3960;BME280;1994;48.640;8.894;2023-06-10T10:07:48;95905.56;;;27.41;40.37
3960;BME280;1994;48.640;8.894;2023-06-10T10:10:15;95905.72;;;27.17;41.15
3960;BME280;1994;48.640;8.894;2023-06-10T10:12:42;95897.47;;;27.53;39.97
3960;BME280;1994;48.640;8.894;2023-06-10T10:15:11;95903.94;;;27.71;40.71
3960;BME280;1994;48.640;8.894;2023-06-10T10:18:14;95896.00;;;26.93;41.44
3960;BME280;1994;48.640;8.894;2023-06-10T10:20:49;95900.38;;;26.86;41.32
3960;BME280;1994;48.640;8.894;2023-06-10T10:23:23;95888.94;;;26.70;41.69
3960;BME280;1994;48.640;8.894;2023-06-10T10:25:53;95901.25;;;27.52;40.60
3960;BME280;1994;48.640;8.894;2023-06-10T10:28:21;95900.38;;;27.79;40.09
3960;BME280;1994;48.640;8.894;2023-06-10T10:30:53;95893.41;;;27.59;40.62
3960;BME280;1994;48.640;8.894;2023-06-10T10:33:33;95891.91;;;27.77;39.89
3960;BME280;1994;48.640;8.894;2023-06-10T10:36:00;95896.47;;;28.30;39.28
3960;BME280;1994;48.640;8.894;2023-06-10T10:38:28;95883.94;;;27.92;41.31
3960;BME280;1994;48.640;8.894;2023-06-10T10:40:55;95888.81;;;28.44;40.09
3960;BME280;1994;48.640;8.894;2023-06-10T10:43:25;95890.88;;;28.35;40.07
3960;BME280;1994;48.640;8.894;2023-06-10T10:46:01;95888.81;;;28.44;39.00
3960;BME280;1994;48.640;8.894;2023-06-10T10:48:38;95889.47;;;27.53;40.25
3960;BME280;1994;48.640;8.894;2023-06-10T10:51:04;95892.78;;;27.31;40.58
3960;BME280;1994;48.640;8.894;2023-06-10T10:53:30;95885.94;;;27.80;40.07
3960;BME280;1994;48.640;8.894;2023-06-10T10:56:16;95881.53;;;28.06;40.06
3960;BME280;1994;48.640;8.894;2023-06-10T10:59:04;95881.63;;;27.41;40.23
3960;BME280;1994;48.640;8.894;2023-06-10T11:01:41;95882.97;;;27.50;40.39
3960;BME280;1994;48.640;8.894;2023-06-10T11:04:08;95880.91;;;28.13;41.39
3960;BME280;1994;48.640;8.894;2023-06-10T11:06:36;95881.22;;;28.46;39.20
3960;BME280;1994;48.640;8.894;2023-06-10T11:09:26;95873.44;;;28.79;39.21
3960;BME280;1994;48.640;8.894;2023-06-10T11:11:58;95866.31;;;28.64;38.70
3960;BME280;1994;48.640;8.894;2023-06-10T11:14:29;95867.56;;;29.37;37.03
3960;BME280;1994;48.640;8.894;2023-06-10T11:16:59;95877.47;;;28.92;39.20
3960;BME280;1994;48.640;8.894;2023-06-10T11:19:38;95873.56;;;28.44;40.05
3960;BME280;1994;48.640;8.894;2023-06-10T11:22:17;95875.03;;;29.25;37.53
3960;BME280;1994;48.640;8.894;2023-06-10T11:24:49;95868.19;;;29.27;38.46
3960;BME280;1994;48.640;8.894;2023-06-10T11:27:23;95865.63;;;27.91;38.75
3960;BME280;1994;48.640;8.894;2023-06-10T11:30:18;95871.53;;;28.19;39.17
3960;BME280;1994;48.640;8.894;2023-06-10T11:32:51;95863.06;;;28.74;37.63
3960;BME280;1994;48.640;8.894;2023-06-10T11:35:19;95863.13;;;29.45;36.42
3960;BME280;1994;48.640;8.894;2023-06-10T11:37:47;95867.34;;;29.72;36.00
3960;BME280;1994;48.640;8.894;2023-06-10T11:40:13;95871.13;;;29.45;36.05
3960;BME280;1994;48.640;8.894;2023-06-10T11:42:40;95864.44;;;29.32;35.40
3960;BME280;1994;48.640;8.894;2023-06-10T11:45:08;95860.50;;;29.00;35.48
3960;BME280;1994;48.640;8.894;2023-06-10T11:47:34;95853.88;;;28.49;37.19
3960;BME280;1994;48.640;8.894;2023-06-10T11:49:59;95856.72;;;29.01;37.12
3960;BME280;1994;48.640;8.894;2023-06-10T11:52:32;95854.72;;;28.75;37.04
3960;BME280;1994;48.640;8.894;2023-06-10T11:54:59;95860.66;;;29.33;36.93
3960;BME280;1994;48.640;8.894;2023-06-10T11:57:25;95853.88;;;29.39;35.86
3960;BME280;1994;48.640;8.894;2023-06-10T11:59:51;95856.06;;;29.56;35.99
3960;BME280;1994;48.640;8.894;2023-06-10T12:02:18;95847.53;;;29.73;35.31
3960;BME280;1994;48.640;8.894;2023-06-10T12:04:45;95856.97;;;28.96;35.78
3960;BME280;1994;48.640;8.894;2023-06-10T12:07:18;95848.03;;;28.85;36.17
3960;BME280;1994;48.640;8.894;2023-06-10T12:09:45;95848.00;;;29.30;36.60
3960;BME280;1994;48.640;8.894;2023-06-10T12:12:10;95838.47;;;29.29;35.75
3960;BME280;1994;48.640;8.894;2023-06-10T12:14:57;95848.16;;;30.22;35.88
3960;BME280;1994;48.640;8.894;2023-06-10T12:19:59;95850.09;;;30.58;34.55
3960;BME280;1994;48.640;8.894;2023-06-10T12:22:25;95849.22;;;30.83;34.55
3960;BME280;1994;48.640;8.894;2023-06-10T12:25:05;95842.06;;;29.92;35.18
3960;BME280;1994;48.640;8.894;2023-06-10T12:27:33;95845.41;;;30.15;35.64
3960;BME280;1994;48.640;8.894;2023-06-10T12:30:01;95843.28;;;29.98;35.39
3960;BME280;1994;48.640;8.894;2023-06-10T12:35:05;95841.50;;;29.79;34.92
3960;BME280;1994;48.640;8.894;2023-06-10T12:37:32;95837.28;;;29.75;33.91
3960;BME280;1994;48.640;8.894;2023-06-10T12:40:05;95846.38;;;30.33;34.41
3960;BME280;1994;48.640;8.894;2023-06-10T12:42:32;95833.63;;;30.89;32.68
3960;BME280;1994;48.640;8.894;2023-06-10T12:45:01;95836.94;;;31.22;32.73
3960;BME280;1994;48.640;8.894;2023-06-10T12:47:32;95847.91;;;31.54;32.61
3960;BME280;1994;48.640;8.894;2023-06-10T12:49:59;95837.75;;;31.84;31.88
3960;BME280;1994;48.640;8.894;2023-06-10T12:52:25;95841.19;;;31.81;31.97
3960;BME280;1994;48.640;8.894;2023-06-10T12:54:51;95838.78;;;31.15;33.06
3960;BME280;1994;48.640;8.894;2023-06-10T12:57:21;95841.22;;;30.14;34.35
3960;BME280;1994;48.640;8.894;2023-06-10T12:59:46;95842.72;;;29.56;34.35
3960;BME280;1994;48.640;8.894;2023-06-10T13:02:21;95834.88;;;30.62;34.23
3960;BME280;1994;48.640;8.894;2023-06-10T13:04:50;95837.66;;;31.16;32.62
3960;BME280;1994;48.640;8.894;2023-06-10T13:07:17;95838.88;;;31.76;31.30
3960;BME280;1994;48.640;8.894;2023-06-10T13:09:43;95838.13;;;31.86;31.04
3960;BME280;1994;48.640;8.894;2023-06-10T13:12:10;95841.31;;;30.94;32.71
3960;BME280;1994;48.640;8.894;2023-06-10T13:14:37;95821.53;;;30.29;33.83
3960;BME280;1994;48.640;8.894;2023-06-10T13:17:05;95826.34;;;29.87;34.87
3960;BME280;1994;48.640;8.894;2023-06-10T13:19:33;95829.34;;;29.82;34.96
3960;BME280;1994;48.640;8.894;2023-06-10T13:21:59;95823.09;;;29.45;35.12
3960;BME280;1994;48.640;8.894;2023-06-10T13:24:25;95823.72;;;28.90;35.64
3960;BME280;1994;48.640;8.894;2023-06-10T13:26:51;95818.81;;;28.92;36.60
3960;BME280;1994;48.640;8.894;2023-06-10T13:29:17;95817.34;;;29.43;35.39
3960;BME280;1994;48.640;8.894;2023-06-10T13:31:43;95820.81;;;29.73;35.53
3960;BME280;1994;48.640;8.894;2023-06-10T13:34:08;95807.19;;;30.11;34.41
3960;BME280;1994;48.640;8.894;2023-06-10T13:36:34;95816.50;;;31.04;33.55